createdAt,value
2018-11-14T00:00:49.151Z,92.84
2018-11-14T00:03:18.849Z,92.31
2018-11-14T00:05:48.461Z,92.71
2018-11-14T00:08:18.263Z,93.06
2018-11-14T00:10:47.823Z,93.48
2018-11-14T00:13:17.390Z,94.17
2018-11-14T00:15:47.379Z,93.55
2018-11-14T00:18:17.166Z,93.18
2018-11-14T00:20:46.902Z,94.07
2018-11-14T00:23:16.736Z,94.22
2018-11-14T00:25:46.418Z,94.52
2018-11-14T00:28:16.245Z,95.42
2018-11-14T00:30:45.994Z,95.18
2018-11-14T00:33:16.029Z,95.53
2018-11-14T00:35:45.593Z,95.80
2018-11-14T00:38:15.325Z,96.01
2018-11-14T00:40:45.048Z,96.16
2018-11-14T00:43:14.752Z,96.80
2018-11-14T00:45:44.587Z,96.68
2018-11-14T00:48:14.224Z,97.25
2018-11-14T00:50:44.124Z,97.11
2018-11-14T00:53:13.939Z,97.36
2018-11-14T00:55:43.759Z,95.45
2018-11-14T00:58:13.629Z,95.24
2018-11-14T01:00:43.375Z,95.53
2018-11-14T01:03:13.487Z,95.01
2018-11-14T01:05:43.188Z,94.50
2018-11-14T01:08:12.968Z,93.92
2018-11-14T01:10:43.684Z,94.05
2018-11-14T01:13:13.602Z,94.40
2018-11-14T01:15:43.355Z,94.53
2018-11-14T01:18:13.283Z,95.43
2018-11-14T01:20:43.359Z,95.28
2018-11-14T01:23:12.932Z,95.72
2018-11-14T01:25:42.724Z,95.25
2018-11-14T01:28:12.384Z,96.01
2018-11-14T01:30:42.093Z,96.18
2018-11-14T01:33:12.014Z,96.12
2018-11-14T01:35:41.916Z,96.37
2018-11-14T01:38:11.609Z,96.37
2018-11-14T01:40:41.334Z,96.43
2018-11-14T01:43:10.944Z,96.85
2018-11-14T01:45:40.857Z,97.42
2018-11-14T01:48:10.713Z,97.74
2018-11-14T01:50:40.475Z,97.18
2018-11-14T01:53:10.324Z,96.42
2018-11-14T01:55:40.250Z,96.53
2018-11-14T01:58:09.821Z,96.58
2018-11-14T02:00:39.412Z,96.57
2018-11-14T02:03:09.101Z,96.84
2018-11-14T02:05:38.933Z,96.95
2018-11-14T02:08:08.892Z,96.63
2018-11-14T02:10:38.664Z,96.19
2018-11-14T02:13:08.603Z,96.17
2018-11-14T02:15:38.707Z,96.39
2018-11-14T02:18:08.477Z,96.60
2018-11-14T02:20:38.115Z,96.88
2018-11-14T02:23:08.023Z,96.73
2018-11-14T02:25:37.804Z,96.75
2018-11-14T02:28:07.826Z,96.67
2018-11-14T02:30:37.710Z,97.06
2018-11-14T02:33:07.518Z,96.42
2018-11-14T02:35:37.295Z,96.06
2018-11-14T02:38:07.446Z,96.07
2018-11-14T02:40:37.754Z,96.34
2018-11-14T02:43:07.594Z,96.68
2018-11-14T02:45:37.425Z,96.29
2018-11-14T02:48:07.400Z,96.64
2018-11-14T02:50:37.096Z,96.77
2018-11-14T02:53:06.736Z,96.10
2018-11-14T02:55:36.418Z,96.43
2018-11-14T02:58:06.566Z,96.58
2018-11-14T03:00:36.245Z,96.55
2018-11-14T03:03:06.063Z,96.61
2018-11-14T03:05:35.986Z,96.39
2018-11-14T03:08:05.783Z,96.27
2018-11-14T03:10:36.633Z,96.32
2018-11-14T03:13:06.663Z,95.96
2018-11-14T03:15:36.359Z,96.38
2018-11-14T03:18:06.131Z,95.95
2018-11-14T03:20:36.758Z,95.99
2018-11-14T03:23:06.588Z,96.06
2018-11-14T03:25:36.453Z,96.51
2018-11-14T03:28:06.504Z,97.05
2018-11-14T03:30:36.400Z,96.57
2018-11-14T03:33:06.128Z,96.77
2018-11-14T03:35:41.547Z,97.21
2018-11-14T03:38:11.163Z,96.95
2018-11-14T03:40:40.828Z,96.80
2018-11-14T03:43:12.536Z,96.94
2018-11-14T03:45:42.821Z,97.13
2018-11-14T03:48:12.479Z,96.95
2018-11-14T03:50:42.299Z,96.98
2018-11-14T03:53:12.072Z,96.91
2018-11-14T03:55:41.790Z,97.04
2018-11-14T03:58:11.641Z,96.68
2018-11-14T04:00:41.340Z,96.87
2018-11-14T04:03:11.077Z,96.82
2018-11-14T04:05:41.028Z,97.80
2018-11-14T04:08:10.822Z,98.26
2018-11-14T04:10:40.606Z,98.90
2018-11-14T04:13:10.280Z,99.04
2018-11-14T04:15:40.080Z,98.89
2018-11-14T04:18:09.871Z,98.96
2018-11-14T04:20:39.833Z,98.38
2018-11-14T04:23:09.667Z,97.88
2018-11-14T04:25:39.379Z,97.75
2018-11-14T04:28:09.102Z,97.75
2018-11-14T04:30:38.868Z,97.86
2018-11-14T04:33:08.748Z,97.88
2018-11-14T04:35:38.686Z,98.05
2018-11-14T04:38:08.340Z,98.11
2018-11-14T04:40:38.123Z,98.14
2018-11-14T04:43:07.957Z,97.77
2018-11-14T04:45:37.654Z,98.32
2018-11-14T04:48:07.792Z,98.19
2018-11-14T04:50:37.548Z,98.74
2018-11-14T04:53:07.326Z,98.70
2018-11-14T04:55:36.918Z,98.26
2018-11-14T04:58:06.831Z,98.80
2018-11-14T05:00:36.655Z,98.22
2018-11-14T05:03:06.713Z,98.53
2018-11-14T05:05:36.378Z,98.33
2018-11-14T05:08:06.478Z,98.46
2018-11-14T05:10:36.195Z,98.58
2018-11-14T05:13:06.650Z,98.11
2018-11-14T05:15:36.652Z,97.63
2018-11-14T05:18:06.660Z,98.16
2018-11-14T05:20:36.377Z,97.89
2018-11-14T05:23:06.485Z,97.89
2018-11-14T05:25:36.161Z,97.55
2018-11-14T05:28:06.101Z,97.56
2018-11-14T05:30:35.809Z,98.12
2018-11-14T05:33:05.582Z,98.07
2018-11-14T05:35:35.310Z,97.48
2018-11-14T05:38:05.465Z,97.51
2018-11-14T05:40:36.053Z,98.10
2018-11-14T05:43:05.864Z,97.66
2018-11-14T05:45:35.886Z,96.45
2018-11-14T05:48:06.243Z,96.53
2018-11-14T05:50:36.044Z,96.45
2018-11-14T05:53:05.650Z,96.76
2018-11-14T05:55:35.251Z,95.80
2018-11-14T05:58:04.945Z,94.97
2018-11-14T06:00:35.290Z,93.83
2018-11-14T06:03:05.486Z,92.00
2018-11-14T06:05:35.330Z,89.74
2018-11-14T06:08:04.978Z,89.15
2018-11-14T06:10:34.751Z,88.49
2018-11-14T06:13:04.477Z,87.62
2018-11-14T06:15:34.259Z,85.83
2018-11-14T06:18:03.981Z,83.42
2018-11-14T06:20:33.794Z,82.68
2018-11-14T06:23:03.806Z,80.37
2018-11-14T06:25:38.279Z,78.75
2018-11-14T06:28:10.307Z,75.68
2018-11-14T06:30:41.219Z,72.41
2018-11-14T06:33:11.675Z,70.38
2018-11-14T06:35:41.481Z,70.95
2018-11-14T06:38:11.240Z,69.14
2018-11-14T06:40:41.093Z,67.76
2018-11-14T06:43:11.410Z,68.57
2018-11-14T06:45:41.189Z,70.98
2018-11-14T06:48:10.974Z,71.11
2018-11-14T06:50:40.728Z,74.66
2018-11-14T06:53:10.394Z,74.06
2018-11-14T06:55:40.210Z,71.70
2018-11-14T06:58:10.029Z,73.45
2018-11-14T07:00:39.891Z,74.40
2018-11-14T07:03:10.227Z,72.48
2018-11-14T07:05:40.141Z,74.03
2018-11-14T07:08:09.837Z,73.25
2018-11-14T07:10:40.050Z,72.96
2018-11-14T07:13:12.217Z,74.63
2018-11-14T07:15:42.632Z,74.94
2018-11-14T07:18:13.035Z,73.75
2018-11-14T07:20:43.951Z,76.34
2018-11-14T07:23:13.715Z,76.68
2018-11-14T07:25:43.965Z,76.43
2018-11-14T07:28:13.718Z,71.42
2018-11-14T07:30:43.457Z,69.24
2018-11-14T07:33:13.165Z,69.93
2018-11-14T07:35:42.958Z,72.67
2018-11-14T07:38:37.621Z,71.12
2018-11-14T07:41:08.896Z,71.27
2018-11-14T07:43:39.212Z,70.41
2018-11-14T07:46:09.459Z,72.04
2018-11-14T07:48:39.271Z,69.46
2018-11-14T07:51:08.934Z,68.85
2018-11-14T07:53:38.605Z,68.65
2018-11-14T07:56:08.280Z,66.92
2018-11-14T07:58:38.130Z,63.88
2018-11-14T08:01:08.183Z,57.20
2018-11-14T08:03:38.156Z,51.90
2018-11-14T08:06:08.143Z,53.42
2018-11-14T08:08:37.942Z,52.99
2018-11-14T08:11:08.610Z,54.49
2018-11-14T08:13:39.463Z,54.41
2018-11-14T08:16:09.343Z,52.83
2018-11-14T08:18:39.057Z,55.23
2018-11-14T08:21:08.950Z,57.85
2018-11-14T08:23:39.675Z,62.00
2018-11-14T08:26:09.448Z,63.69
2018-11-14T08:28:39.255Z,66.18
2018-11-14T08:31:08.918Z,66.25
2018-11-14T08:33:38.635Z,67.91
2018-11-14T08:36:08.240Z,69.43
2018-11-14T08:38:37.957Z,66.66
2018-11-14T08:41:07.612Z,65.55
2018-11-14T08:43:37.578Z,65.17
2018-11-14T08:46:07.797Z,64.79
2018-11-14T08:48:37.572Z,65.60
2018-11-14T08:51:07.761Z,64.45
2018-11-14T08:53:37.602Z,63.46
2018-11-14T08:56:07.392Z,64.77
2018-11-14T08:58:37.146Z,63.23
2018-11-14T09:01:07.235Z,63.65
2018-11-14T09:03:37.065Z,62.76
2018-11-14T09:06:07.586Z,63.49
2018-11-14T09:08:37.372Z,63.48
2018-11-14T09:11:07.561Z,64.53
2018-11-14T09:13:37.129Z,62.84
2018-11-14T09:16:07.000Z,59.57
2018-11-14T09:18:36.659Z,57.40
2018-11-14T09:21:06.492Z,51.37
2018-11-14T09:23:36.300Z,50.69
2018-11-14T09:26:06.197Z,46.69
2018-11-14T09:28:36.935Z,46.27
2018-11-14T09:31:06.879Z,45.91
2018-11-14T09:33:36.572Z,43.32
2018-11-14T09:36:06.453Z,41.67
2018-11-14T09:38:36.293Z,42.57
2018-11-14T09:41:06.286Z,42.68
2018-11-14T09:43:36.089Z,41.34
2018-11-14T09:46:05.946Z,40.09
2018-11-14T09:48:35.732Z,38.32
2018-11-14T09:51:05.547Z,37.47
2018-11-14T09:53:35.375Z,37.72
2018-11-14T09:56:05.241Z,38.49
2018-11-14T09:58:35.011Z,39.77
2018-11-14T10:01:04.807Z,39.18
2018-11-14T10:03:34.706Z,38.53
2018-11-14T10:06:04.355Z,40.43
2018-11-14T10:08:34.243Z,40.31
2018-11-14T10:11:04.009Z,37.97
2018-11-14T10:13:33.842Z,38.36
2018-11-14T10:16:03.562Z,38.62
2018-11-14T10:18:33.384Z,36.90
2018-11-14T10:21:03.086Z,36.17
2018-11-14T10:23:32.900Z,36.50
2018-11-14T10:26:02.669Z,35.20
2018-11-14T10:28:32.223Z,36.60
2018-11-14T10:31:01.954Z,35.57
2018-11-14T10:33:31.586Z,37.95
2018-11-14T10:36:01.387Z,36.98
2018-11-14T10:38:31.072Z,38.36
2018-11-14T10:41:00.782Z,39.68
2018-11-14T10:43:30.562Z,42.31
2018-11-14T10:46:00.394Z,41.85
2018-11-14T10:48:30.295Z,41.69
2018-11-14T10:50:59.931Z,43.17
2018-11-14T10:53:29.695Z,44.90
2018-11-14T10:55:59.365Z,45.08
2018-11-14T10:58:29.066Z,44.83
2018-11-14T11:01:03.814Z,45.66
2018-11-14T11:03:40.593Z,46.90
2018-11-14T11:06:15.303Z,46.17
2018-11-14T11:08:50.252Z,46.91
2018-11-14T11:11:25.020Z,46.79
2018-11-14T11:14:11.875Z,46.45
2018-11-14T11:16:47.104Z,43.48
2018-11-14T11:19:18.226Z,41.00
2018-11-14T11:21:48.299Z,38.95
2018-11-14T11:24:19.330Z,39.63
2018-11-14T11:26:49.753Z,38.54
2018-11-14T11:29:19.689Z,37.69
2018-11-14T11:31:49.720Z,37.02
2018-11-14T11:34:19.570Z,36.35
2018-11-14T11:36:49.243Z,35.25
2018-11-14T11:39:19.973Z,34.85
2018-11-14T11:41:49.827Z,34.24
2018-11-14T11:44:19.449Z,34.70
2018-11-14T11:46:49.000Z,34.94
2018-11-14T11:49:18.518Z,35.10
2018-11-14T11:51:48.031Z,36.88
2018-11-14T11:54:17.815Z,36.20
2018-11-14T11:56:47.290Z,35.51
2018-11-14T11:59:16.757Z,34.54
2018-11-14T12:01:46.299Z,35.14
2018-11-14T12:04:16.002Z,35.84
2018-11-14T12:06:45.832Z,37.10
2018-11-14T12:09:15.843Z,37.19
2018-11-14T12:11:45.344Z,37.26
2018-11-14T12:14:14.855Z,36.11
2018-11-14T12:16:44.322Z,36.46
2018-11-14T12:19:13.876Z,35.25
2018-11-14T12:21:43.701Z,36.26
2018-11-14T12:24:13.156Z,36.88
2018-11-14T12:26:42.770Z,39.66
2018-11-14T12:29:12.251Z,41.74
2018-11-14T12:31:41.880Z,43.02
2018-11-14T12:34:11.750Z,46.43
2018-11-14T12:36:41.247Z,46.96
2018-11-14T12:39:11.251Z,47.36
2018-11-14T12:41:40.689Z,48.89
2018-11-14T12:44:10.225Z,49.66
2018-11-14T12:46:40.668Z,49.96
2018-11-14T12:49:10.181Z,50.57
2018-11-14T12:51:40.524Z,51.01
2018-11-14T12:54:10.153Z,51.15
2018-11-14T12:56:39.619Z,51.83
2018-11-14T12:59:09.219Z,51.94
2018-11-14T13:01:39.452Z,51.84
2018-11-14T13:04:08.977Z,51.91
2018-11-14T13:06:38.577Z,52.73
2018-11-14T13:09:09.917Z,54.09
2018-11-14T13:11:39.550Z,55.42
2018-11-14T13:14:09.134Z,55.87
2018-11-14T13:16:38.929Z,56.86
2018-11-14T13:19:08.557Z,56.90
2018-11-14T13:21:38.635Z,56.79
2018-11-14T13:24:08.168Z,56.89
2018-11-14T13:26:37.761Z,56.97
2018-11-14T13:29:07.671Z,57.47
2018-11-14T13:31:37.309Z,56.92
2018-11-14T13:34:06.947Z,57.21
2018-11-14T13:36:36.931Z,57.82
2018-11-14T13:39:08.984Z,58.35
2018-11-14T13:41:38.640Z,59.07
2018-11-14T13:44:08.303Z,59.46
2018-11-14T13:46:37.916Z,59.80
2018-11-14T13:49:07.618Z,59.92
2018-11-14T13:51:37.178Z,60.13
2018-11-14T13:54:06.981Z,60.45
2018-11-14T13:56:36.900Z,61.33
2018-11-14T13:59:06.872Z,62.51
2018-11-14T14:01:36.446Z,62.92
2018-11-14T14:04:06.370Z,63.26
2018-11-14T14:06:36.394Z,63.68
2018-11-14T14:09:09.768Z,64.01
2018-11-14T14:11:39.432Z,64.90
2018-11-14T14:14:12.956Z,65.64
2018-11-14T14:16:43.759Z,66.38
2018-11-14T14:19:18.228Z,66.74
2018-11-14T14:21:57.354Z,67.40
2018-11-14T14:24:27.141Z,67.81
2018-11-14T14:26:57.229Z,67.69
2018-11-14T14:29:27.055Z,68.03
2018-11-14T14:31:57.075Z,68.73
2018-11-14T14:34:26.863Z,69.26
2018-11-14T14:36:56.666Z,69.54
2018-11-14T14:39:26.490Z,69.84
2018-11-14T14:41:56.750Z,70.41
2018-11-14T14:44:26.624Z,70.80
2018-11-14T14:46:56.439Z,70.86
2018-11-14T14:49:26.602Z,71.54
2018-11-14T14:51:56.844Z,71.20
2018-11-14T14:54:41.307Z,71.59
2018-11-14T14:57:11.096Z,71.79
2018-11-14T14:59:41.816Z,72.41
2018-11-14T15:02:11.991Z,72.57
2018-11-14T15:04:41.903Z,72.38
2018-11-14T15:07:11.762Z,72.69
2018-11-14T15:09:41.936Z,72.46
2018-11-14T15:12:11.838Z,73.22
2018-11-14T15:14:41.764Z,73.22
2018-11-14T15:17:11.532Z,73.12
2018-11-14T15:19:41.466Z,73.30
2018-11-14T15:22:11.380Z,73.62
2018-11-14T15:24:41.336Z,74.17
2018-11-14T15:27:11.234Z,74.81
2018-11-14T15:29:41.058Z,74.52
2018-11-14T15:32:11.002Z,74.55
2018-11-14T15:34:40.983Z,74.30
2018-11-14T15:37:11.829Z,74.26
2018-11-14T15:39:41.679Z,73.80
2018-11-14T15:42:11.618Z,73.79
2018-11-14T15:44:41.419Z,74.25
2018-11-14T15:47:11.391Z,73.92
2018-11-14T15:49:41.277Z,73.85
2018-11-14T15:52:11.054Z,74.46
2018-11-14T15:54:40.897Z,74.78
2018-11-14T15:57:10.769Z,73.90
2018-11-14T15:59:40.506Z,73.31
2018-11-14T16:02:10.321Z,72.80
2018-11-14T16:04:40.596Z,72.68
2018-11-14T16:07:10.488Z,72.90
2018-11-14T16:09:40.187Z,73.99
2018-11-14T16:12:10.117Z,74.20
2018-11-14T16:14:39.916Z,73.88
2018-11-14T16:17:09.782Z,74.33
2018-11-14T16:19:39.630Z,74.48
2018-11-14T16:22:09.519Z,74.12
2018-11-14T16:24:39.421Z,74.20
2018-11-14T16:27:09.344Z,73.85
2018-11-14T16:29:39.271Z,73.01
2018-11-14T16:32:09.180Z,73.02
2018-11-14T16:34:39.199Z,73.03
2018-11-14T16:37:09.153Z,72.80
2018-11-14T16:39:39.760Z,72.54
2018-11-14T16:42:09.626Z,73.15
2018-11-14T16:44:39.595Z,73.56
2018-11-14T16:47:09.618Z,74.11
2018-11-14T16:49:39.377Z,74.56
2018-11-14T16:52:09.334Z,74.88
2018-11-14T16:54:39.100Z,74.76
2018-11-14T16:57:09.066Z,75.37
2018-11-14T16:59:38.921Z,75.76
2018-11-14T17:02:08.769Z,75.70
2018-11-14T17:04:38.623Z,75.08
2018-11-14T17:07:08.446Z,74.79
2018-11-14T17:09:38.268Z,74.59
2018-11-14T17:12:08.319Z,74.75
2018-11-14T17:14:38.075Z,74.11
2018-11-14T17:17:07.979Z,73.60
2018-11-14T17:19:38.836Z,74.15
2018-11-14T17:22:08.992Z,74.07
2018-11-14T17:24:38.960Z,74.21
2018-11-14T17:27:08.886Z,75.17
2018-11-14T17:29:39.551Z,73.87
2018-11-14T17:32:09.461Z,73.69
2018-11-14T17:34:39.603Z,72.90
2018-11-14T17:37:09.458Z,72.06
2018-11-14T17:39:39.105Z,71.94
2018-11-14T17:42:09.041Z,71.55
2018-11-14T17:44:38.643Z,71.21
2018-11-14T17:47:08.403Z,71.71
2018-11-14T17:49:38.380Z,72.15
2018-11-14T17:52:08.256Z,72.49
2018-11-14T17:54:37.847Z,71.78
2018-11-14T17:57:07.577Z,72.11
2018-11-14T17:59:37.249Z,72.41
2018-11-14T18:02:07.267Z,72.77
2018-11-14T18:04:37.075Z,71.74
2018-11-14T18:07:06.927Z,71.54
2018-11-14T18:09:37.163Z,71.39
2018-11-14T18:12:07.163Z,71.96
2018-11-14T18:14:36.927Z,72.61
2018-11-14T18:17:06.730Z,72.38
2018-11-14T18:19:36.351Z,72.72
2018-11-14T18:22:06.487Z,72.32
2018-11-14T18:24:36.277Z,72.57
2018-11-14T18:27:06.080Z,72.98
2018-11-14T18:29:35.720Z,72.80
2018-11-14T18:32:05.532Z,73.79
2018-11-14T18:34:35.652Z,74.18
2018-11-14T18:37:05.397Z,74.55
2018-11-14T18:39:35.087Z,74.66
2018-11-14T18:42:04.813Z,74.21
2018-11-14T18:44:36.277Z,74.50
2018-11-14T18:47:06.279Z,73.78
2018-11-14T18:49:36.025Z,73.56
2018-11-14T18:52:05.975Z,73.48
2018-11-14T18:54:36.177Z,73.23
2018-11-14T18:57:05.833Z,73.26
2018-11-14T18:59:35.629Z,73.82
2018-11-14T19:02:05.448Z,73.96
2018-11-14T19:04:35.213Z,74.01
2018-11-14T19:07:05.022Z,74.66
2018-11-14T19:09:34.847Z,74.81
2018-11-14T19:12:04.805Z,74.56
2018-11-14T19:14:34.557Z,74.91
2018-11-14T19:17:04.353Z,75.54
2018-11-14T19:19:34.063Z,76.22
2018-11-14T19:22:03.858Z,76.96
2018-11-14T19:24:33.615Z,77.84
2018-11-14T19:27:03.212Z,80.67
2018-11-14T19:29:33.058Z,81.16
2018-11-14T19:32:03.261Z,82.41
2018-11-14T19:34:32.895Z,83.71
2018-11-14T19:37:03.013Z,84.80
2018-11-14T19:39:32.668Z,85.43
2018-11-14T19:42:02.542Z,86.48
2018-11-14T19:44:32.332Z,87.25
2018-11-14T19:47:02.119Z,87.52
2018-11-14T19:49:31.874Z,87.22
2018-11-14T19:52:01.535Z,87.93
2018-11-14T19:54:31.380Z,88.01
2018-11-14T19:57:00.940Z,88.91
2018-11-14T19:59:30.551Z,88.53
2018-11-14T20:02:00.247Z,89.07
2018-11-14T20:04:30.006Z,90.10
2018-11-14T20:06:59.677Z,90.52
2018-11-14T20:09:29.248Z,90.86
2018-11-14T20:11:58.807Z,90.39
2018-11-14T20:14:28.686Z,89.42
2018-11-14T20:16:58.314Z,88.82
2018-11-14T20:19:28.576Z,89.55
2018-11-14T20:21:58.550Z,89.79
2018-11-14T20:24:28.187Z,90.17
2018-11-14T20:26:57.868Z,91.01
2018-11-14T20:29:27.618Z,91.26
2018-11-14T20:31:57.419Z,91.21
2018-11-14T20:34:27.639Z,91.68
2018-11-14T20:36:57.427Z,91.53
2018-11-14T20:39:27.071Z,90.77
2018-11-14T20:41:56.930Z,91.33
2018-11-14T20:44:26.483Z,91.35
2018-11-14T20:46:56.144Z,91.87
2018-11-14T20:49:25.743Z,91.77
2018-11-14T20:51:55.683Z,91.76
2018-11-14T20:54:25.492Z,91.82
2018-11-14T20:56:55.175Z,92.35
2018-11-14T20:59:24.959Z,92.33
2018-11-14T21:01:54.631Z,92.43
2018-11-14T21:04:24.426Z,92.34
2018-11-14T21:06:54.482Z,92.63
2018-11-14T21:09:24.269Z,92.62
2018-11-14T21:11:54.011Z,92.32
2018-11-14T21:14:23.790Z,92.33
2018-11-14T21:16:53.478Z,92.29
2018-11-14T21:19:23.598Z,91.98
2018-11-14T21:21:53.319Z,92.27
2018-11-14T21:24:23.247Z,92.52
2018-11-14T21:26:52.823Z,92.59
2018-11-14T21:29:23.538Z,92.87
2018-11-14T21:31:53.262Z,92.73
2018-11-14T21:34:23.088Z,92.66
2018-11-14T21:36:52.877Z,91.80
2018-11-14T21:39:22.567Z,90.74
2018-11-14T21:41:52.219Z,89.94
2018-11-14T21:44:22.070Z,90.64
2018-11-14T21:46:51.821Z,90.53
2018-11-14T21:49:27.609Z,89.46
2018-11-14T21:51:58.393Z,87.73
2018-11-14T21:54:28.306Z,86.60
2018-11-14T21:56:58.952Z,85.70
2018-11-14T21:59:28.480Z,83.17
2018-11-14T22:01:59.059Z,82.05
2018-11-14T22:04:28.673Z,81.21
2018-11-14T22:06:58.265Z,80.80
2018-11-14T22:09:27.816Z,79.71
2018-11-14T22:11:57.650Z,80.08
2018-11-14T22:14:27.317Z,79.64
2018-11-14T22:16:56.979Z,80.17
2018-11-14T22:19:26.716Z,79.77
2018-11-14T22:21:56.401Z,80.03
2018-11-14T22:24:25.973Z,81.30
2018-11-14T22:26:56.410Z,82.00
2018-11-14T22:29:26.101Z,81.60
2018-11-14T22:31:55.860Z,81.87
2018-11-14T22:34:25.749Z,78.76
2018-11-14T22:36:55.885Z,73.84
2018-11-14T22:39:25.595Z,72.87
2018-11-14T22:41:55.278Z,71.08
2018-11-14T22:44:25.010Z,69.37
2018-11-14T22:46:55.173Z,68.77
2018-11-14T22:49:25.213Z,68.54
2018-11-14T22:51:54.751Z,68.20
2018-11-14T22:54:24.328Z,68.93
2018-11-14T22:56:54.905Z,70.38
2018-11-14T22:59:24.503Z,73.66
2018-11-14T23:01:54.172Z,75.68
2018-11-14T23:04:23.837Z,75.96
2018-11-14T23:06:53.598Z,74.16
2018-11-14T23:09:23.339Z,72.90
2018-11-14T23:11:53.121Z,72.49
2018-11-14T23:14:22.912Z,68.96
2018-11-14T23:16:52.566Z,69.22
2018-11-14T23:19:22.356Z,67.75
2018-11-14T23:21:52.054Z,67.65
2018-11-14T23:24:21.826Z,66.46
2018-11-14T23:26:51.455Z,63.89
2018-11-14T23:29:21.266Z,62.33
2018-11-14T23:31:50.955Z,62.28
2018-11-14T23:34:20.641Z,62.65
2018-11-14T23:36:50.382Z,63.15
2018-11-14T23:39:20.263Z,63.09
2018-11-14T23:41:49.847Z,62.38
2018-11-14T23:44:27.599Z,62.37
2018-11-14T23:46:57.130Z,61.70
2018-11-14T23:49:26.671Z,60.23
2018-11-14T23:51:56.239Z,59.37
2018-11-14T23:54:25.779Z,58.96
2018-11-14T23:56:55.340Z,58.65
2018-11-14T23:59:25.148Z,58.25
